FAB2590 SBDN-SBBR
Flight info
| Callsign | FAB2590 |
|---|---|
| Flight time | 1h 10m |
| Altitude | 39000 |
| Route | GEKEM UM532 ILPAV |
| Aircraft | E190/M-SDE3GILORVW/S |
Departure
| Time | 2026-04-26 00:03 |
|---|---|
| Airport | Presidente Prudente Airport (SBDN) |
Arrival
| Time | 2026-04-26 01:14 |
|---|---|
| Airport | Presidente Juscelino Kubitschek International Airport (SBBR) |
| Time | Latitude | Longitude | Altitude | Speed | Heading |
|---|---|---|---|---|---|
| 2026-04-25 23:50 | -22.17776 | -51.41823 | 1485 ft | 0 kts | 141° |
| 2026-04-25 23:57 | -22.17772 | -51.41826 | 1488 ft | 2 kts | 140° |
| 2026-04-25 23:57 | -22.17758 | -51.41835 | 1481 ft | 2 kts | 159° |
| 2026-04-25 23:57 | -22.17742 | -51.41838 | 1480 ft | 2 kts | 222° |
| 2026-04-25 23:57 | -22.17735 | -51.41823 | 1485 ft | 2 kts | 269° |
| 2026-04-25 23:58 | -22.17735 | -51.41818 | 1486 ft | 0 kts | 275° |
| 2026-04-25 23:58 | -22.17734 | -51.41829 | 1484 ft | 5 kts | 275° |
| 2026-04-25 23:59 | -22.17728 | -51.41901 | 1488 ft | 14 kts | 275° |
| 2026-04-25 23:59 | -22.17718 | -51.42021 | 1488 ft | 17 kts | 278° |
| 2026-04-25 23:59 | -22.17699 | -51.42156 | 1487 ft | 19 kts | 278° |
| 2026-04-25 23:59 | -22.17678 | -51.42309 | 1474 ft | 22 kts | 278° |
| 2026-04-26 00:00 | -22.17653 | -51.42496 | 1471 ft | 28 kts | 278° |
| 2026-04-26 00:00 | -22.17621 | -51.42723 | 1459 ft | 33 kts | 278° |
| 2026-04-26 00:00 | -22.17584 | -51.42984 | 1454 ft | 37 kts | 278° |
| 2026-04-26 00:00 | -22.17543 | -51.43274 | 1437 ft | 41 kts | 279° |
| 2026-04-26 00:01 | -22.17456 | -51.43430 | 1428 ft | 13 kts | 336° |
| 2026-04-26 00:01 | -22.17449 | -51.43433 | 1427 ft | 0 kts | 336° |
| 2026-04-26 00:01 | -22.17447 | -51.43434 | 1427 ft | 2 kts | 337° |
| 2026-04-26 00:01 | -22.17421 | -51.43445 | 1426 ft | 7 kts | 338° |
| 2026-04-26 00:02 | -22.17368 | -51.43450 | 1425 ft | 6 kts | 43° |
| 2026-04-26 00:02 | -22.17368 | -51.43433 | 1426 ft | 0 kts | 98° |
| 2026-04-26 00:02 | -22.17371 | -51.43414 | 1427 ft | 19 kts | 98° |
| 2026-04-26 00:03 | -22.17425 | -51.42994 | 1451 ft | 93 kts | 98° |
| 2026-04-26 00:03 | -22.17553 | -51.42054 | 1477 ft | 160 kts | 99° |
| 2026-04-26 00:03 | -22.17688 | -51.40748 | 2111 ft | 181 kts | 90° |
| 2026-04-26 00:03 | -22.17387 | -51.39413 | 2891 ft | 203 kts | 60° |
| 2026-04-26 00:04 | -22.16297 | -51.38474 | 3856 ft | 206 kts | 15° |
| 2026-04-26 00:04 | -22.14863 | -51.38453 | 4996 ft | 211 kts | 340° |
| 2026-04-26 00:04 | -22.13634 | -51.39297 | 6207 ft | 210 kts | 319° |
| 2026-04-26 00:04 | -22.12366 | -51.40055 | 7357 ft | 213 kts | 349° |
| 2026-04-26 00:05 | -22.10910 | -51.39838 | 8465 ft | 216 kts | 23° |
| 2026-04-26 00:05 | -22.09552 | -51.39099 | 9529 ft | 221 kts | 26° |
| 2026-04-26 00:05 | -22.08174 | -51.38311 | 10493 ft | 226 kts | 26° |
| 2026-04-26 00:05 | -22.06683 | -51.37463 | 10846 ft | 266 kts | 26° |
| 2026-04-26 00:06 | -22.04902 | -51.36457 | 10995 ft | 311 kts | 26° |
| 2026-04-26 00:06 | -22.02902 | -51.35324 | 11730 ft | 328 kts | 26° |
| 2026-04-26 00:06 | -22.00865 | -51.34165 | 12940 ft | 334 kts | 26° |
| 2026-04-26 00:06 | -21.98819 | -51.33004 | 14055 ft | 339 kts | 26° |
| 2026-04-26 00:07 | -21.96707 | -51.31809 | 15003 ft | 346 kts | 26° |
| 2026-04-26 00:07 | -21.94554 | -51.30591 | 15932 ft | 353 kts | 25° |
| 2026-04-26 00:07 | -21.92357 | -51.29349 | 16836 ft | 360 kts | 25° |
| 2026-04-26 00:07 | -21.90118 | -51.28085 | 17721 ft | 366 kts | 24° |
| 2026-04-26 00:08 | -21.87837 | -51.26796 | 18508 ft | 373 kts | 24° |
| 2026-04-26 00:08 | -21.85529 | -51.25492 | 19302 ft | 377 kts | 25° |
| 2026-04-26 00:08 | -21.83187 | -51.24168 | 20062 ft | 381 kts | 25° |
| 2026-04-26 00:08 | -21.80821 | -51.22832 | 20792 ft | 386 kts | 25° |
| 2026-04-26 00:09 | -21.78413 | -51.21514 | 21505 ft | 391 kts | 24° |
| 2026-04-26 00:09 | -21.75972 | -51.20189 | 22207 ft | 395 kts | 24° |
| 2026-04-26 00:09 | -21.73505 | -51.18854 | 22909 ft | 400 kts | 24° |
| 2026-04-26 00:09 | -21.71853 | -51.17955 | 23340 ft | 403 kts | 25° |
| 2026-04-26 00:10 | -21.68507 | -51.16072 | 24174 ft | 406 kts | 25° |
| 2026-04-26 00:10 | -21.66843 | -51.15131 | 24550 ft | 409 kts | 25° |
| 2026-04-26 00:10 | -21.63490 | -51.13243 | 25312 ft | 412 kts | 25° |
| 2026-04-26 00:10 | -21.60942 | -51.11813 | 25862 ft | 415 kts | 24° |
| 2026-04-26 00:11 | -21.58375 | -51.10375 | 26406 ft | 417 kts | 24° |
| 2026-04-26 00:11 | -21.55792 | -51.08930 | 26940 ft | 420 kts | 24° |
| 2026-04-26 00:11 | -21.53198 | -51.07467 | 27462 ft | 422 kts | 24° |
| 2026-04-26 00:11 | -21.51478 | -51.06487 | 27800 ft | 424 kts | 24° |
| 2026-04-26 00:12 | -21.48857 | -51.04993 | 28301 ft | 427 kts | 24° |
| 2026-04-26 00:12 | -21.46225 | -51.03495 | 28782 ft | 430 kts | 24° |
| 2026-04-26 00:12 | -21.43572 | -51.01982 | 29298 ft | 431 kts | 24° |
| 2026-04-26 00:12 | -21.40941 | -51.00476 | 30022 ft | 427 kts | 24° |
| 2026-04-26 00:13 | -21.38321 | -50.98977 | 30495 ft | 427 kts | 24° |
| 2026-04-26 00:13 | -21.35700 | -50.97481 | 30944 ft | 426 kts | 24° |
| 2026-04-26 00:13 | -21.33080 | -50.95988 | 31385 ft | 426 kts | 24° |
| 2026-04-26 00:13 | -21.30460 | -50.94496 | 31821 ft | 426 kts | 24° |
| 2026-04-26 00:14 | -21.27843 | -50.93005 | 32268 ft | 426 kts | 24° |
| 2026-04-26 00:14 | -21.25229 | -50.91516 | 32691 ft | 426 kts | 24° |
| 2026-04-26 00:14 | -21.22615 | -50.90026 | 33115 ft | 425 kts | 24° |
| 2026-04-26 00:14 | -21.20004 | -50.88537 | 33530 ft | 425 kts | 24° |
| 2026-04-26 00:15 | -21.17429 | -50.87070 | 33916 ft | 425 kts | 24° |
| 2026-04-26 00:15 | -21.14819 | -50.85583 | 34260 ft | 424 kts | 24° |
| 2026-04-26 00:15 | -21.12209 | -50.84096 | 34617 ft | 424 kts | 24° |
| 2026-04-26 00:15 | -21.09610 | -50.82618 | 34965 ft | 422 kts | 24° |
| 2026-04-26 00:16 | -21.07012 | -50.81145 | 35272 ft | 423 kts | 24° |
| 2026-04-26 00:16 | -21.04410 | -50.79670 | 35598 ft | 422 kts | 24° |
| 2026-04-26 00:16 | -21.01815 | -50.78199 | 35939 ft | 421 kts | 24° |
| 2026-04-26 00:16 | -20.99231 | -50.76733 | 36242 ft | 420 kts | 25° |
| 2026-04-26 00:17 | -20.96677 | -50.75286 | 36545 ft | 420 kts | 25° |
| 2026-04-26 00:17 | -20.94094 | -50.73823 | 36859 ft | 419 kts | 25° |
| 2026-04-26 00:17 | -20.91527 | -50.72370 | 37172 ft | 418 kts | 25° |
| 2026-04-26 00:17 | -20.88961 | -50.70917 | 37463 ft | 417 kts | 25° |
| 2026-04-26 00:18 | -20.86399 | -50.69468 | 37744 ft | 416 kts | 25° |
| 2026-04-26 00:18 | -20.83836 | -50.68018 | 38043 ft | 415 kts | 25° |
| 2026-04-26 00:18 | -20.81284 | -50.66575 | 38319 ft | 415 kts | 25° |
| 2026-04-26 00:18 | -20.78735 | -50.65135 | 38574 ft | 414 kts | 25° |
| 2026-04-26 00:19 | -20.76189 | -50.63707 | 38825 ft | 412 kts | 24° |
| 2026-04-26 00:19 | -20.71007 | -50.60882 | 38844 ft | 424 kts | 24° |
| 2026-04-26 00:20 | -20.65749 | -50.58009 | 38863 ft | 427 kts | 24° |
| 2026-04-26 00:20 | -20.60450 | -50.55108 | 38892 ft | 434 kts | 24° |
| 2026-04-26 00:21 | -20.55032 | -50.52144 | 38928 ft | 441 kts | 24° |
| 2026-04-26 00:21 | -20.49530 | -50.49136 | 38941 ft | 448 kts | 25° |
| 2026-04-26 00:22 | -20.43931 | -50.46078 | 38949 ft | 455 kts | 25° |
| 2026-04-26 00:22 | -20.38257 | -50.42981 | 38953 ft | 461 kts | 25° |
| 2026-04-26 00:23 | -20.32497 | -50.39841 | 38959 ft | 468 kts | 25° |
| 2026-04-26 00:23 | -20.26669 | -50.36665 | 38962 ft | 473 kts | 25° |
| 2026-04-26 00:24 | -20.20806 | -50.33473 | 38968 ft | 478 kts | 25° |
| 2026-04-26 00:24 | -20.14844 | -50.30230 | 38956 ft | 479 kts | 25° |
| 2026-04-26 00:25 | -20.08944 | -50.27024 | 38956 ft | 478 kts | 25° |
| 2026-04-26 00:25 | -20.03012 | -50.23814 | 38954 ft | 477 kts | 25° |
| 2026-04-26 00:26 | -19.97093 | -50.20615 | 38957 ft | 477 kts | 25° |
| 2026-04-26 00:26 | -19.91172 | -50.17422 | 38959 ft | 476 kts | 25° |
| 2026-04-26 00:27 | -19.85263 | -50.14238 | 38959 ft | 476 kts | 25° |
| 2026-04-26 00:27 | -19.79353 | -50.11055 | 38958 ft | 475 kts | 25° |
| 2026-04-26 00:28 | -19.73455 | -50.07882 | 38955 ft | 475 kts | 25° |
| 2026-04-26 00:28 | -19.67601 | -50.04734 | 38957 ft | 475 kts | 25° |
| 2026-04-26 00:29 | -19.61705 | -50.01567 | 38960 ft | 474 kts | 25° |
| 2026-04-26 00:29 | -19.55820 | -49.98408 | 38960 ft | 474 kts | 25° |
| 2026-04-26 00:30 | -19.49938 | -49.95253 | 38963 ft | 474 kts | 25° |
| 2026-04-26 00:30 | -19.44059 | -49.92103 | 38965 ft | 473 kts | 25° |
| 2026-04-26 00:31 | -19.38184 | -49.88957 | 38965 ft | 473 kts | 25° |
| 2026-04-26 00:31 | -19.32347 | -49.85824 | 38968 ft | 473 kts | 26° |
| 2026-04-26 00:32 | -19.26508 | -49.82586 | 38970 ft | 473 kts | 26° |
| 2026-04-26 00:32 | -19.17760 | -49.77754 | 38971 ft | 472 kts | 26° |
| 2026-04-26 00:33 | -19.11958 | -49.74559 | 38971 ft | 472 kts | 26° |
| 2026-04-26 00:33 | -19.06125 | -49.71351 | 38972 ft | 472 kts | 26° |
| 2026-04-26 00:34 | -19.00294 | -49.68146 | 38971 ft | 472 kts | 26° |
| 2026-04-26 00:34 | -18.94469 | -49.64948 | 38970 ft | 472 kts | 26° |
| 2026-04-26 00:35 | -18.88647 | -49.61752 | 38971 ft | 471 kts | 26° |
| 2026-04-26 00:35 | -18.82828 | -49.58562 | 38970 ft | 471 kts | 26° |
| 2026-04-26 00:36 | -18.77033 | -49.55401 | 38967 ft | 471 kts | 26° |
| 2026-04-26 00:36 | -18.71198 | -49.52229 | 38976 ft | 471 kts | 26° |
| 2026-04-26 00:37 | -18.65373 | -49.49063 | 38977 ft | 471 kts | 26° |
| 2026-04-26 00:37 | -18.59536 | -49.45893 | 38975 ft | 471 kts | 26° |
| 2026-04-26 00:38 | -18.53710 | -49.42730 | 38976 ft | 471 kts | 27° |
| 2026-04-26 00:38 | -18.47877 | -49.39566 | 38978 ft | 471 kts | 27° |
| 2026-04-26 00:39 | -18.42095 | -49.36432 | 38966 ft | 455 kts | 27° |
| 2026-04-26 00:39 | -18.39324 | -49.34930 | 38937 ft | 440 kts | 26° |
| 2026-04-26 00:39 | -18.36657 | -49.33486 | 38916 ft | 432 kts | 27° |
| 2026-04-26 00:40 | -18.31292 | -49.30584 | 38921 ft | 436 kts | 26° |
| 2026-04-26 00:40 | -18.25874 | -49.27654 | 38931 ft | 438 kts | 27° |
| 2026-04-26 00:41 | -18.20458 | -49.24727 | 38940 ft | 437 kts | 27° |
| 2026-04-26 00:41 | -18.15044 | -49.21803 | 38946 ft | 437 kts | 27° |
| 2026-04-26 00:42 | -18.09623 | -49.18878 | 38951 ft | 437 kts | 26° |
| 2026-04-26 00:42 | -18.04231 | -49.16007 | 38958 ft | 437 kts | 26° |
| 2026-04-26 00:43 | -17.98790 | -49.13119 | 38957 ft | 437 kts | 26° |
| 2026-04-26 00:43 | -17.93369 | -49.10238 | 38964 ft | 437 kts | 26° |
| 2026-04-26 00:44 | -17.87942 | -49.07355 | 38969 ft | 437 kts | 26° |
| 2026-04-26 00:44 | -17.82515 | -49.04474 | 38972 ft | 437 kts | 26° |
| 2026-04-26 00:45 | -17.77117 | -49.01612 | 38977 ft | 437 kts | 26° |
| 2026-04-26 00:45 | -17.71863 | -48.98399 | 38983 ft | 437 kts | 38° |
| 2026-04-26 00:46 | -17.67371 | -48.94074 | 38993 ft | 439 kts | 43° |
| 2026-04-26 00:46 | -17.62914 | -48.89698 | 38996 ft | 438 kts | 42° |
| 2026-04-26 00:47 | -17.58412 | -48.85375 | 38990 ft | 438 kts | 41° |
| 2026-04-26 00:47 | -17.53931 | -48.81087 | 38991 ft | 438 kts | 41° |
| 2026-04-26 00:48 | -17.49425 | -48.76777 | 38714 ft | 440 kts | 41° |
| 2026-04-26 00:48 | -17.47125 | -48.74579 | 37268 ft | 455 kts | 41° |
| 2026-04-26 00:48 | -17.44827 | -48.72385 | 37024 ft | 440 kts | 41° |
| 2026-04-26 00:49 | -17.42568 | -48.70225 | 36289 ft | 438 kts | 41° |
| 2026-04-26 00:49 | -17.40339 | -48.68096 | 35764 ft | 431 kts | 41° |
| 2026-04-26 00:49 | -17.38132 | -48.65989 | 35205 ft | 426 kts | 41° |
| 2026-04-26 00:49 | -17.35943 | -48.63901 | 34617 ft | 425 kts | 42° |
| 2026-04-26 00:50 | -17.33756 | -48.61815 | 34089 ft | 426 kts | 42° |
| 2026-04-26 00:50 | -17.31543 | -48.59706 | 33463 ft | 434 kts | 42° |
| 2026-04-26 00:50 | -17.29306 | -48.57574 | 32924 ft | 439 kts | 42° |
| 2026-04-26 00:50 | -17.27062 | -48.55436 | 32329 ft | 444 kts | 42° |
| 2026-04-26 00:51 | -17.24768 | -48.53250 | 31720 ft | 447 kts | 42° |
| 2026-04-26 00:51 | -17.22466 | -48.51058 | 31152 ft | 448 kts | 42° |
| 2026-04-26 00:51 | -17.20151 | -48.48854 | 30530 ft | 451 kts | 42° |
| 2026-04-26 00:51 | -17.17820 | -48.46636 | 29918 ft | 453 kts | 42° |
| 2026-04-26 00:52 | -17.15480 | -48.44409 | 29355 ft | 454 kts | 42° |
| 2026-04-26 00:52 | -17.13132 | -48.42175 | 28707 ft | 457 kts | 42° |
| 2026-04-26 00:52 | -17.10812 | -48.39971 | 28125 ft | 454 kts | 42° |
| 2026-04-26 00:52 | -17.08482 | -48.37757 | 27531 ft | 450 kts | 42° |
| 2026-04-26 00:53 | -17.06175 | -48.35567 | 26921 ft | 446 kts | 42° |
| 2026-04-26 00:53 | -17.03886 | -48.33392 | 26339 ft | 441 kts | 43° |
| 2026-04-26 00:53 | -17.01623 | -48.31243 | 25758 ft | 438 kts | 42° |
| 2026-04-26 00:53 | -16.99376 | -48.29112 | 25180 ft | 435 kts | 42° |
| 2026-04-26 00:54 | -16.97147 | -48.26996 | 24604 ft | 431 kts | 42° |
| 2026-04-26 00:54 | -16.94932 | -48.24897 | 24039 ft | 428 kts | 42° |
| 2026-04-26 00:54 | -16.92735 | -48.22814 | 23441 ft | 425 kts | 42° |
| 2026-04-26 00:54 | -16.90559 | -48.20752 | 22908 ft | 419 kts | 42° |
| 2026-04-26 00:55 | -16.88406 | -48.18713 | 22333 ft | 417 kts | 42° |
| 2026-04-26 00:55 | -16.86270 | -48.16690 | 21793 ft | 413 kts | 42° |
| 2026-04-26 00:55 | -16.84148 | -48.14681 | 21249 ft | 409 kts | 42° |
| 2026-04-26 00:55 | -16.82072 | -48.12717 | 20721 ft | 405 kts | 43° |
| 2026-04-26 00:56 | -16.79993 | -48.10749 | 20179 ft | 401 kts | 43° |
| 2026-04-26 00:56 | -16.77840 | -48.08919 | 19611 ft | 399 kts | 31° |
| 2026-04-26 00:56 | -16.75254 | -48.07961 | 19158 ft | 395 kts | 8° |
| 2026-04-26 00:56 | -16.72527 | -48.08127 | 18681 ft | 395 kts | 346° |
| 2026-04-26 00:57 | -16.69986 | -48.09205 | 18157 ft | 393 kts | 335° |
| 2026-04-26 00:57 | -16.67489 | -48.10345 | 17630 ft | 389 kts | 340° |
| 2026-04-26 00:57 | -16.64926 | -48.11210 | 17133 ft | 386 kts | 345° |
| 2026-04-26 00:57 | -16.62332 | -48.11878 | 16625 ft | 382 kts | 348° |
| 2026-04-26 00:58 | -16.59739 | -48.12467 | 16124 ft | 379 kts | 348° |
| 2026-04-26 00:58 | -16.57195 | -48.13032 | 15624 ft | 376 kts | 348° |
| 2026-04-26 00:58 | -16.54641 | -48.13602 | 15133 ft | 373 kts | 348° |
| 2026-04-26 00:58 | -16.52107 | -48.14171 | 14625 ft | 370 kts | 348° |
| 2026-04-26 00:59 | -16.49611 | -48.14734 | 14146 ft | 365 kts | 348° |
| 2026-04-26 00:59 | -16.47148 | -48.15291 | 13632 ft | 359 kts | 348° |
| 2026-04-26 00:59 | -16.44718 | -48.15840 | 13199 ft | 356 kts | 347° |
| 2026-04-26 00:59 | -16.42283 | -48.16392 | 12698 ft | 359 kts | 347° |
| 2026-04-26 01:00 | -16.39894 | -48.16932 | 12235 ft | 352 kts | 348° |
| 2026-04-26 01:00 | -16.37521 | -48.17467 | 11784 ft | 344 kts | 348° |
| 2026-04-26 01:00 | -16.35208 | -48.17991 | 11320 ft | 336 kts | 348° |
| 2026-04-26 01:00 | -16.32943 | -48.18501 | 10879 ft | 330 kts | 348° |
| 2026-04-26 01:01 | -16.31465 | -48.18835 | 10589 ft | 326 kts | 348° |
| 2026-04-26 01:01 | -16.29265 | -48.19332 | 10246 ft | 318 kts | 348° |
| 2026-04-26 01:01 | -16.27142 | -48.19810 | 10042 ft | 307 kts | 348° |
| 2026-04-26 01:01 | -16.25102 | -48.20269 | 9960 ft | 291 kts | 348° |
| 2026-04-26 01:02 | -16.23177 | -48.20700 | 9931 ft | 275 kts | 348° |
| 2026-04-26 01:02 | -16.21357 | -48.21107 | 9897 ft | 262 kts | 348° |
| 2026-04-26 01:02 | -16.19599 | -48.21501 | 9861 ft | 256 kts | 348° |
| 2026-04-26 01:02 | -16.17862 | -48.21891 | 9904 ft | 255 kts | 348° |
| 2026-04-26 01:03 | -16.16133 | -48.22277 | 10017 ft | 248 kts | 348° |
| 2026-04-26 01:03 | -16.14601 | -48.22315 | 10016 ft | 230 kts | 7° |
| 2026-04-26 01:03 | -16.13084 | -48.21988 | 9987 ft | 216 kts | 14° |
| 2026-04-26 01:03 | -16.11657 | -48.21577 | 9965 ft | 211 kts | 15° |
| 2026-04-26 01:04 | -16.10240 | -48.21176 | 9950 ft | 211 kts | 14° |
| 2026-04-26 01:04 | -16.08814 | -48.20795 | 9951 ft | 212 kts | 13° |
| 2026-04-26 01:04 | -16.07381 | -48.20423 | 9957 ft | 212 kts | 13° |
| 2026-04-26 01:04 | -16.05944 | -48.20054 | 9963 ft | 212 kts | 13° |
| 2026-04-26 01:05 | -16.04511 | -48.19686 | 9971 ft | 212 kts | 13° |
| 2026-04-26 01:05 | -16.03077 | -48.19319 | 9981 ft | 212 kts | 13° |
| 2026-04-26 01:05 | -16.01641 | -48.18951 | 9989 ft | 212 kts | 13° |
| 2026-04-26 01:05 | -16.00189 | -48.18580 | 9787 ft | 219 kts | 13° |
| 2026-04-26 01:06 | -15.98744 | -48.18210 | 9631 ft | 213 kts | 13° |
| 2026-04-26 01:06 | -15.97310 | -48.17876 | 9508 ft | 210 kts | 11° |
| 2026-04-26 01:06 | -15.95892 | -48.17573 | 9397 ft | 206 kts | 11° |
| 2026-04-26 01:06 | -15.94477 | -48.17268 | 9128 ft | 209 kts | 11° |
| 2026-04-26 01:07 | -15.93049 | -48.16954 | 8815 ft | 210 kts | 12° |
| 2026-04-26 01:07 | -15.91631 | -48.16641 | 8457 ft | 210 kts | 12° |
| 2026-04-26 01:07 | -15.90211 | -48.16325 | 8185 ft | 206 kts | 13° |
| 2026-04-26 01:07 | -15.88839 | -48.15971 | 7911 ft | 202 kts | 27° |
| 2026-04-26 01:08 | -15.87974 | -48.14909 | 7640 ft | 197 kts | 76° |
| 2026-04-26 01:08 | -15.87704 | -48.13513 | 7439 ft | 197 kts | 78° |
| 2026-04-26 01:08 | -15.87596 | -48.12145 | 7237 ft | 182 kts | 91° |
| 2026-04-26 01:08 | -15.87528 | -48.10892 | 7034 ft | 165 kts | 85° |
| 2026-04-26 01:09 | -15.87415 | -48.09784 | 6872 ft | 144 kts | 87° |
| 2026-04-26 01:09 | -15.87362 | -48.08781 | 6690 ft | 140 kts | 89° |
| 2026-04-26 01:09 | -15.87299 | -48.07765 | 6507 ft | 142 kts | 88° |
| 2026-04-26 01:09 | -15.87230 | -48.06744 | 6330 ft | 142 kts | 88° |
| 2026-04-26 01:10 | -15.87167 | -48.05717 | 6148 ft | 142 kts | 88° |
| 2026-04-26 01:10 | -15.87103 | -48.04702 | 6013 ft | 137 kts | 88° |
| 2026-04-26 01:10 | -15.87039 | -48.03701 | 6019 ft | 139 kts | 88° |
| 2026-04-26 01:10 | -15.86974 | -48.02683 | 5975 ft | 140 kts | 88° |
| 2026-04-26 01:11 | -15.86911 | -48.01667 | 5974 ft | 140 kts | 88° |
| 2026-04-26 01:11 | -15.86846 | -48.00671 | 5981 ft | 141 kts | 88° |
| 2026-04-26 01:11 | -15.86791 | -47.99642 | 5868 ft | 147 kts | 89° |
| 2026-04-26 01:11 | -15.86717 | -47.98589 | 5522 ft | 145 kts | 86° |
| 2026-04-26 01:12 | -15.86630 | -47.97550 | 5059 ft | 144 kts | 86° |
| 2026-04-26 01:12 | -15.86548 | -47.96503 | 4492 ft | 147 kts | 88° |
| 2026-04-26 01:12 | -15.86501 | -47.95449 | 3992 ft | 142 kts | 91° |
| 2026-04-26 01:12 | -15.86493 | -47.94493 | 3874 ft | 132 kts | 84° |
| 2026-04-26 01:13 | -15.86376 | -47.93512 | 3643 ft | 139 kts | 86° |
| 2026-04-26 01:13 | -15.86326 | -47.92507 | 3477 ft | 139 kts | 88° |
| 2026-04-26 01:13 | -15.86283 | -47.91617 | 3465 ft | 109 kts | 86° |
| 2026-04-26 01:13 | -15.86241 | -47.90964 | 3478 ft | 62 kts | 85° |
| 2026-04-26 01:14 | -15.86303 | -47.90796 | 3484 ft | 0 kts | 133° |
| 2026-04-26 01:15 | -15.86316 | -47.90781 | 3484 ft | 6 kts | 131° |
| 2026-04-26 01:15 | -15.86362 | -47.90725 | 3480 ft | 14 kts | 133° |
| 2026-04-26 01:15 | -15.86463 | -47.90705 | 3482 ft | 16 kts | 178° |
| 2026-04-26 01:15 | -15.86528 | -47.90654 | 3482 ft | 11 kts | 85° |
| 2026-04-26 01:16 | -15.86519 | -47.90571 | 3482 ft | 12 kts | 85° |
| 2026-04-26 01:16 | -15.86516 | -47.90479 | 3483 ft | 13 kts | 100° |
| 2026-04-26 01:16 | -15.86581 | -47.90456 | 3479 ft | 10 kts | 174° |
| 2026-04-26 01:16 | -15.86607 | -47.90492 | 3482 ft | 0 kts | 267° |
| 2026-04-26 01:17 | -15.86607 | -47.90495 | 3480 ft | 1 kts | 266° |
| 2026-04-26 01:17 | -15.86607 | -47.90500 | 3481 ft | 0 kts | 266° |